createdAt,value
2023-04-11T00:00:50.293Z,0.00
2023-04-11T00:01:50.397Z,0.00
2023-04-11T00:02:50.479Z,0.00
2023-04-11T00:03:50.459Z,0.00
2023-04-11T00:04:50.354Z,0.00
2023-04-11T00:05:50.278Z,0.00
2023-04-11T00:06:50.256Z,0.00
2023-04-11T00:07:50.236Z,0.00
2023-04-11T00:08:50.226Z,0.00
2023-04-11T00:09:50.222Z,12.23
2023-04-11T00:10:50.246Z,25.00
2023-04-11T00:11:50.211Z,25.92
2023-04-11T00:12:50.197Z,23.51
2023-04-11T00:13:50.191Z,25.00
2023-04-11T00:14:50.181Z,27.35
2023-04-11T00:15:50.178Z,25.94
2023-04-11T00:16:50.347Z,25.00
2023-04-11T00:17:50.202Z,25.65
2023-04-11T00:18:50.156Z,26.56
2023-04-11T00:19:50.147Z,27.07
2023-04-11T00:20:50.139Z,27.04
2023-04-11T00:21:50.134Z,25.48
2023-04-11T00:22:50.139Z,25.00
2023-04-11T00:23:50.192Z,26.59
2023-04-11T00:24:50.224Z,25.00
2023-04-11T00:25:50.274Z,25.69
2023-04-11T00:26:50.339Z,26.43
2023-04-11T00:27:50.770Z,28.28
2023-04-11T00:28:50.758Z,25.00
2023-04-11T00:29:50.735Z,27.26
2023-04-11T00:30:50.742Z,27.40
2023-04-11T00:31:50.790Z,25.00
2023-04-11T00:32:50.755Z,25.24
2023-04-11T00:33:50.728Z,31.55
2023-04-11T00:34:50.742Z,28.93
2023-04-11T00:35:50.841Z,28.30
2023-04-11T00:36:50.769Z,25.22
2023-04-11T00:37:51.688Z,27.07
2023-04-11T00:38:50.758Z,26.27
2023-04-11T00:39:50.792Z,27.76
2023-04-11T00:40:50.836Z,26.06
2023-04-11T00:41:50.896Z,26.25
2023-04-11T00:42:50.950Z,28.53
2023-04-11T00:43:50.956Z,28.06
2023-04-11T00:44:51.012Z,25.00
2023-04-11T00:45:51.929Z,26.37
2023-04-11T00:46:51.093Z,28.33
2023-04-11T00:47:51.217Z,29.06
2023-04-11T00:48:51.177Z,29.06
2023-04-11T00:49:51.840Z,28.62
2023-04-11T00:50:51.250Z,27.69
2023-04-11T00:51:51.300Z,28.62
2023-04-11T00:52:51.703Z,26.52
2023-04-11T00:53:51.755Z,26.36
2023-04-11T00:54:51.745Z,27.58
2023-04-11T00:55:51.759Z,26.49
2023-04-11T00:56:51.750Z,25.13
2023-04-11T00:57:51.746Z,30.17
2023-04-11T00:58:51.801Z,30.00
2023-04-11T00:59:52.342Z,25.00
2023-04-11T01:00:51.810Z,27.74
2023-04-11T01:01:51.905Z,29.60
2023-04-11T01:02:51.898Z,31.47
2023-04-11T01:03:51.810Z,27.08
2023-04-11T01:04:51.813Z,26.86
2023-04-11T01:05:51.852Z,30.79
2023-04-11T01:06:51.908Z,27.20
2023-04-11T01:07:51.944Z,30.04
2023-04-11T01:08:51.996Z,29.73
2023-04-11T01:09:52.848Z,29.97
2023-04-11T01:10:52.084Z,28.16
2023-04-11T01:11:52.126Z,27.60
2023-04-11T01:12:52.166Z,28.77
2023-04-11T01:13:52.218Z,27.20
2023-04-11T01:14:52.284Z,27.98
2023-04-11T01:15:52.296Z,26.96
2023-04-11T01:16:52.400Z,27.33
2023-04-11T01:17:52.488Z,30.70
2023-04-11T01:18:52.441Z,29.11
2023-04-11T01:19:52.462Z,28.65
2023-04-11T01:20:52.510Z,27.97
2023-04-11T01:21:52.542Z,25.00
2023-04-11T01:22:52.585Z,28.98
2023-04-11T01:23:52.692Z,29.65
2023-04-11T01:24:53.364Z,26.45
2023-04-11T01:25:52.728Z,27.01
2023-04-11T01:26:52.801Z,28.87
2023-04-11T01:27:52.813Z,28.88
2023-04-11T01:28:53.073Z,29.55
2023-04-11T01:29:52.900Z,26.72
2023-04-11T01:30:53.140Z,26.97
2023-04-11T01:31:53.007Z,29.16
2023-04-11T01:32:53.075Z,28.58
2023-04-11T01:33:53.090Z,28.56
2023-04-11T01:34:53.134Z,28.34
2023-04-11T01:35:53.219Z,28.93
2023-04-11T01:36:53.216Z,29.42
2023-04-11T01:37:53.287Z,30.43
2023-04-11T01:38:53.395Z,29.34
2023-04-11T01:39:53.357Z,30.52
2023-04-11T01:40:53.384Z,27.53
2023-04-11T01:41:53.427Z,27.59
2023-04-11T01:42:53.470Z,30.70
2023-04-11T01:43:53.508Z,29.13
2023-04-11T01:44:53.548Z,33.08
2023-04-11T01:45:53.594Z,30.29
2023-04-11T01:46:53.658Z,30.94
2023-04-11T01:47:53.734Z,31.19
2023-04-11T01:48:53.891Z,27.98
2023-04-11T01:49:53.767Z,28.58
2023-04-11T01:50:53.809Z,28.92
2023-04-11T01:51:53.882Z,27.61
2023-04-11T01:52:53.902Z,26.94
2023-04-11T01:53:53.952Z,26.81
2023-04-11T01:54:54.006Z,28.36
2023-04-11T01:55:54.033Z,30.18
2023-04-11T01:56:54.067Z,28.03
2023-04-11T01:57:54.118Z,27.98
2023-04-11T01:58:54.500Z,26.64
2023-04-11T01:59:54.198Z,27.39
2023-04-11T02:00:54.251Z,30.73
2023-04-11T02:01:54.356Z,27.39
2023-04-11T02:02:54.532Z,27.32
2023-04-11T02:03:54.509Z,29.65
2023-04-11T02:04:54.408Z,27.18
2023-04-11T02:05:54.441Z,29.61
2023-04-11T02:06:54.500Z,28.80
2023-04-11T02:07:54.528Z,28.61
2023-04-11T02:08:54.923Z,28.50
2023-04-11T02:09:54.625Z,29.77
2023-04-11T02:10:54.653Z,25.56
2023-04-11T02:11:54.697Z,31.81
2023-04-11T02:12:54.741Z,31.96
2023-04-11T02:13:54.807Z,30.40
2023-04-11T02:14:54.840Z,29.37
2023-04-11T02:15:54.900Z,29.25
2023-04-11T02:16:54.952Z,29.72
2023-04-11T02:17:55.035Z,29.37
2023-04-11T02:18:55.390Z,29.53
2023-04-11T02:19:55.068Z,28.30
2023-04-11T02:20:55.093Z,28.04
2023-04-11T02:21:55.135Z,25.56
2023-04-11T02:22:55.177Z,27.77
2023-04-11T02:23:55.238Z,30.58
2023-04-11T02:24:55.274Z,28.49
2023-04-11T02:25:55.308Z,28.98
2023-04-11T02:26:55.358Z,29.73
2023-04-11T02:27:55.388Z,26.87
2023-04-11T02:28:55.810Z,29.57
2023-04-11T02:29:55.467Z,30.17
2023-04-11T02:30:55.542Z,30.24
2023-04-11T02:31:55.698Z,26.16
2023-04-11T02:32:55.630Z,30.06
2023-04-11T02:33:55.611Z,30.17
2023-04-11T02:34:55.668Z,29.63
2023-04-11T02:35:55.723Z,30.33
2023-04-11T02:36:55.725Z,30.67
2023-04-11T02:37:55.753Z,29.09
2023-04-11T02:38:56.354Z,29.62
2023-04-11T02:39:56.190Z,30.09
2023-04-11T02:40:56.182Z,29.00
2023-04-11T02:41:56.185Z,29.27
2023-04-11T02:42:56.195Z,29.82
2023-04-11T02:43:56.188Z,26.93
2023-04-11T02:44:56.192Z,27.66
2023-04-11T02:46:02.315Z,28.52
2023-04-11T02:46:56.290Z,28.90
2023-04-11T02:47:56.233Z,29.86
2023-04-11T02:48:56.355Z,30.09
2023-04-11T02:49:56.192Z,29.13
2023-04-11T02:50:56.217Z,29.28
2023-04-11T02:51:56.183Z,31.43
2023-04-11T02:52:56.200Z,28.77
2023-04-11T02:53:56.207Z,29.08
2023-04-11T02:54:56.201Z,30.23
2023-04-11T02:55:56.239Z,27.17
2023-04-11T02:56:56.191Z,29.92
2023-04-11T02:57:57.105Z,28.54
2023-04-11T02:58:56.312Z,30.56
2023-04-11T02:59:56.204Z,29.11
2023-04-11T03:00:56.224Z,30.66
2023-04-11T03:01:56.252Z,30.13
2023-04-11T03:02:56.218Z,31.17
2023-04-11T03:03:56.303Z,28.77
2023-04-11T03:04:56.189Z,30.38
2023-04-11T03:05:56.184Z,29.99
2023-04-11T03:06:56.327Z,27.14
2023-04-11T03:07:56.181Z,30.05
2023-04-11T03:08:56.476Z,29.55
2023-04-11T03:09:56.181Z,27.22
2023-04-11T03:10:56.179Z,28.74
2023-04-11T03:11:56.179Z,27.77
2023-04-11T03:12:56.187Z,25.87
2023-04-11T03:13:56.238Z,28.39
2023-04-11T03:14:56.269Z,29.22
2023-04-11T03:15:56.324Z,27.98
2023-04-11T03:16:56.352Z,30.51
2023-04-11T03:17:56.421Z,25.05
2023-04-11T03:18:56.721Z,29.83
2023-04-11T03:19:56.480Z,26.65
2023-04-11T03:20:56.505Z,31.43
2023-04-11T03:21:56.545Z,30.49
2023-04-11T03:22:56.634Z,29.43
2023-04-11T03:23:56.627Z,26.73
2023-04-11T03:24:56.666Z,31.01
2023-04-11T03:25:56.705Z,28.90
2023-04-11T03:26:57.145Z,29.38
2023-04-11T03:27:57.192Z,29.21
2023-04-11T03:28:57.347Z,28.64
2023-04-11T03:29:57.125Z,30.88
2023-04-11T03:30:57.183Z,33.20
2023-04-11T03:31:57.122Z,31.16
2023-04-11T03:32:57.168Z,29.67
2023-04-11T03:33:57.134Z,31.26
2023-04-11T03:34:57.122Z,32.27
2023-04-11T03:35:57.168Z,29.58
2023-04-11T03:36:57.162Z,30.16
2023-04-11T03:37:57.205Z,30.46
2023-04-11T03:38:57.435Z,30.48
2023-04-11T03:39:57.297Z,30.07
2023-04-11T03:40:57.929Z,33.43
2023-04-11T03:41:57.378Z,27.82
2023-04-11T03:42:57.424Z,30.77
2023-04-11T03:43:57.529Z,29.99
2023-04-11T03:44:56.506Z,27.40
2023-04-11T03:45:57.566Z,31.09
2023-04-11T03:46:57.753Z,30.40
2023-04-11T03:47:57.668Z,31.60
2023-04-11T03:48:57.961Z,30.99
2023-04-11T03:49:57.731Z,29.91
2023-04-11T03:50:57.770Z,28.77
2023-04-11T03:51:57.821Z,30.04
2023-04-11T03:52:57.869Z,30.95
2023-04-11T03:53:57.935Z,30.47
2023-04-11T03:54:57.995Z,31.33
2023-04-11T03:55:57.987Z,29.79
2023-04-11T03:56:58.033Z,33.61
2023-04-11T03:57:58.079Z,32.09
2023-04-11T03:58:58.123Z,29.35
2023-04-11T03:59:58.148Z,33.98
2023-04-11T04:00:58.184Z,31.33
2023-04-11T04:01:58.306Z,30.00
2023-04-11T04:02:58.435Z,32.73
2023-04-11T04:03:58.770Z,30.86
2023-04-11T04:04:58.392Z,32.01
2023-04-11T04:05:58.387Z,30.25
2023-04-11T04:06:58.443Z,30.38
2023-04-11T04:07:58.467Z,32.04
2023-04-11T04:08:58.494Z,31.83
2023-04-11T04:09:58.537Z,29.16
2023-04-11T04:10:59.437Z,30.33
2023-04-11T04:11:58.620Z,31.47
2023-04-11T04:12:58.658Z,28.57
2023-04-11T04:13:58.845Z,29.57
2023-04-11T04:14:59.414Z,30.92
2023-04-11T04:15:59.901Z,30.05
2023-04-11T04:16:58.841Z,35.51
2023-04-11T04:17:58.832Z,37.17
2023-04-11T04:18:58.762Z,32.36
2023-04-11T04:19:58.761Z,34.95
2023-04-11T04:20:58.758Z,34.64
2023-04-11T04:21:58.747Z,31.47
2023-04-11T04:22:58.743Z,32.44
2023-04-11T04:23:58.923Z,31.05
2023-04-11T04:24:59.427Z,32.31
2023-04-11T04:25:58.716Z,34.20
2023-04-11T04:26:58.734Z,29.96
2023-04-11T04:27:58.711Z,30.84
2023-04-11T04:28:58.703Z,29.23
2023-04-11T04:30:04.229Z,32.50
2023-04-11T04:30:58.692Z,32.80
2023-04-11T04:31:58.723Z,32.71
2023-04-11T04:32:58.749Z,33.10
2023-04-11T04:33:58.737Z,33.24
2023-04-11T04:34:58.916Z,35.42
2023-04-11T04:35:59.503Z,30.94
2023-04-11T04:36:58.675Z,37.56
2023-04-11T04:37:58.718Z,33.10
2023-04-11T04:38:58.770Z,33.71
2023-04-11T04:39:58.816Z,30.11
2023-04-11T04:40:58.859Z,31.99
2023-04-11T04:41:58.906Z,35.00
2023-04-11T04:42:59.007Z,33.33
2023-04-11T04:43:59.002Z,33.01
2023-04-11T04:44:59.048Z,31.36
2023-04-11T04:45:59.091Z,33.32
2023-04-11T04:46:59.121Z,32.16
2023-04-11T04:47:59.212Z,34.60
2023-04-11T04:49:00.975Z,33.28
2023-04-11T04:49:59.214Z,38.09
2023-04-11T04:50:59.212Z,35.45
2023-04-11T04:51:59.202Z,34.19
2023-04-11T04:52:59.199Z,32.55
2023-04-11T04:53:59.184Z,35.19
2023-04-11T04:54:59.195Z,31.51
2023-04-11T04:55:59.165Z,34.32
2023-04-11T04:56:59.163Z,33.24
2023-04-11T04:57:59.156Z,30.83
2023-04-11T04:58:59.178Z,31.39
2023-04-11T04:59:59.143Z,31.15
2023-04-11T05:00:59.973Z,31.27
2023-04-11T05:01:59.157Z,31.96
2023-04-11T05:02:59.194Z,33.85
2023-04-11T05:03:59.735Z,32.00
2023-04-11T05:04:59.099Z,31.34
2023-04-11T05:05:59.100Z,30.75
2023-04-11T05:06:59.167Z,31.26
2023-04-11T05:07:59.088Z,32.21
2023-04-11T05:08:59.079Z,34.14
2023-04-11T05:09:59.073Z,31.50
2023-04-11T05:10:59.063Z,33.07
2023-04-11T05:11:59.098Z,32.67
2023-04-11T05:12:59.106Z,30.56
2023-04-11T05:13:59.152Z,33.93
2023-04-11T05:14:59.228Z,30.52
2023-04-11T05:15:59.234Z,30.82
2023-04-11T05:16:59.391Z,29.68
2023-04-11T05:17:59.355Z,30.51
2023-04-11T05:18:59.374Z,31.14
2023-04-11T05:19:59.415Z,35.18
2023-04-11T05:20:59.468Z,32.41
2023-04-11T05:21:59.946Z,31.67
2023-04-11T05:22:59.540Z,29.43
2023-04-11T05:23:59.584Z,34.74
2023-04-11T05:24:59.642Z,31.94
2023-04-11T05:25:59.669Z,33.50
2023-04-11T05:26:59.718Z,34.72
2023-04-11T05:27:59.754Z,32.13
2023-04-11T05:28:59.806Z,33.03
2023-04-11T05:30:00.454Z,31.45
2023-04-11T05:31:00.610Z,32.02
2023-04-11T05:31:59.937Z,30.70
2023-04-11T05:33:00.564Z,31.91
2023-04-11T05:33:59.979Z,33.17
2023-04-11T05:35:00.030Z,33.06
2023-04-11T05:36:00.480Z,37.28
2023-04-11T05:37:00.120Z,34.66
2023-04-11T05:38:00.163Z,34.08
2023-04-11T05:39:00.204Z,33.34
2023-04-11T05:40:00.472Z,34.85
2023-04-11T05:41:00.502Z,37.70
2023-04-11T05:42:00.337Z,34.51
2023-04-11T05:43:00.960Z,32.62
2023-04-11T05:44:00.463Z,33.99
2023-04-11T05:45:00.469Z,34.41
2023-04-11T05:46:01.345Z,34.61
2023-04-11T05:47:00.576Z,30.78
2023-04-11T05:48:00.619Z,33.53
2023-04-11T05:49:00.986Z,36.67
2023-04-11T05:50:00.685Z,34.08
2023-04-11T05:51:00.732Z,35.89
2023-04-11T05:52:00.760Z,33.26
2023-04-11T05:53:00.981Z,33.04
2023-04-11T05:54:00.980Z,33.98
2023-04-11T05:55:00.904Z,34.80
2023-04-11T05:56:00.962Z,33.22
2023-04-11T05:57:00.976Z,36.90
2023-04-11T05:58:01.491Z,35.71
2023-04-11T05:59:01.065Z,36.81
2023-04-11T06:00:02.466Z,36.81
2023-04-11T06:01:01.119Z,37.05
2023-04-11T06:02:01.218Z,36.93
2023-04-11T06:03:01.300Z,37.73
2023-04-11T06:04:01.518Z,35.98
2023-04-11T06:05:01.562Z,39.58
2023-04-11T06:06:04.541Z,42.77
2023-04-11T06:07:01.300Z,43.14
2023-04-11T06:08:33.097Z,43.90
2023-04-11T06:09:01.300Z,43.36
2023-04-11T06:10:01.492Z,45.04
2023-04-11T06:11:01.284Z,48.36
2023-04-11T06:12:01.275Z,58.00
2023-04-11T06:13:01.265Z,67.91
2023-04-11T06:14:01.660Z,71.47
2023-04-11T06:15:01.252Z,74.18
2023-04-11T06:16:01.314Z,77.44
2023-04-11T06:17:01.242Z,82.67
2023-04-11T06:18:01.249Z,88.80
2023-04-11T06:19:01.213Z,94.76
2023-04-11T06:20:01.988Z,99.98
2023-04-11T06:21:02.018Z,106.85
2023-04-11T06:22:01.470Z,107.10
2023-04-11T06:23:01.160Z,108.00
2023-04-11T06:24:01.158Z,109.99
2023-04-11T06:25:01.151Z,112.99
2023-04-11T06:26:01.133Z,122.22
2023-04-11T06:27:01.126Z,123.24
2023-04-11T06:28:01.119Z,124.36
2023-04-11T06:29:01.117Z,123.64
2023-04-11T06:30:01.118Z,125.97
2023-04-11T06:31:01.147Z,125.88
2023-04-11T06:32:01.128Z,131.21
2023-04-11T06:33:01.554Z,132.96
2023-04-11T06:34:01.101Z,133.30
2023-04-11T06:35:01.147Z,140.50
2023-04-11T06:36:01.130Z,137.30
2023-04-11T06:37:01.101Z,139.16
2023-04-11T06:38:01.525Z,142.97
2023-04-11T06:39:01.083Z,143.17
2023-04-11T06:40:01.227Z,143.90
2023-04-11T06:41:01.211Z,148.88
2023-04-11T06:42:01.216Z,150.65
2023-04-11T06:43:02.471Z,157.95
2023-04-11T06:44:01.236Z,168.83
2023-04-11T06:45:01.223Z,183.70
2023-04-11T06:46:01.238Z,192.19
2023-04-11T06:47:01.247Z,199.98
2023-04-11T06:48:01.508Z,211.00
2023-04-11T06:49:01.193Z,215.61
2023-04-11T06:50:01.208Z,224.91
2023-04-11T06:51:01.100Z,228.58
2023-04-11T06:52:01.082Z,237.28
2023-04-11T06:53:01.499Z,244.52
2023-04-11T06:54:01.490Z,246.71
2023-04-11T06:55:01.145Z,250.00
2023-04-11T06:56:01.199Z,250.00
2023-04-11T06:57:01.168Z,250.00
2023-04-11T06:58:01.176Z,250.00
2023-04-11T06:59:01.498Z,250.00
2023-04-11T07:00:01.500Z,248.55
2023-04-11T07:01:01.202Z,250.00
2023-04-11T07:02:01.330Z,249.02
2023-04-11T07:03:01.442Z,250.00
2023-04-11T07:05:00.242Z,250.00
2023-04-11T07:06:01.272Z,249.94
2023-04-11T07:07:01.298Z,250.00
2023-04-11T07:08:01.281Z,247.64
2023-04-11T07:09:01.262Z,249.82
2023-04-11T07:10:01.274Z,248.73
2023-04-11T07:11:01.265Z,250.00
2023-04-11T07:12:01.239Z,249.97
2023-04-11T07:13:01.241Z,250.13
2023-04-11T07:14:01.241Z,249.64
2023-04-11T07:15:01.255Z,249.10
2023-04-11T07:16:01.284Z,250.00
2023-04-11T07:17:01.307Z,247.12
2023-04-11T07:18:01.313Z,248.65
2023-04-11T07:19:01.321Z,249.64
2023-04-11T07:20:01.604Z,250.00
2023-04-11T07:21:01.419Z,249.39
2023-04-11T07:22:01.438Z,249.12
2023-04-11T07:23:01.517Z,248.66
2023-04-11T07:24:02.055Z,249.24
2023-04-11T07:25:01.586Z,250.00
2023-04-11T07:26:02.022Z,248.94
2023-04-11T07:27:01.741Z,249.31
2023-04-11T07:28:01.766Z,249.73
2023-04-11T07:29:01.768Z,249.62
2023-04-11T07:30:01.788Z,246.73
2023-04-11T07:31:02.047Z,249.00
2023-04-11T07:32:01.974Z,246.72
2023-04-11T07:33:02.077Z,246.65
2023-04-11T07:34:01.997Z,249.96
2023-04-11T07:35:02.180Z,235.40
2023-04-11T07:36:02.529Z,221.67
2023-04-11T07:37:02.113Z,218.51
2023-04-11T07:38:02.134Z,218.08
2023-04-11T07:39:02.219Z,212.78
2023-04-11T07:40:02.122Z,211.56
2023-04-11T07:41:02.516Z,213.54
2023-04-11T07:42:02.143Z,219.81
2023-04-11T07:43:02.131Z,229.67
2023-04-11T07:44:02.498Z,231.99
2023-04-11T07:45:02.139Z,233.74
2023-04-11T07:46:02.732Z,239.49
2023-04-11T07:47:03.184Z,241.99
2023-04-11T07:48:02.298Z,244.18
2023-04-11T07:49:02.552Z,250.00
2023-04-11T07:50:02.258Z,251.37
2023-04-11T07:51:02.271Z,247.98
2023-04-11T07:52:02.369Z,250.00
2023-04-11T07:53:02.504Z,250.00
2023-04-11T07:54:02.462Z,250.00
2023-04-11T07:55:02.534Z,250.00
2023-04-11T07:56:03.274Z,192.70
2023-04-11T07:57:02.567Z,151.14
2023-04-11T07:58:02.593Z,117.39
2023-04-11T07:59:02.621Z,93.12
2023-04-11T08:00:02.971Z,67.29
2023-04-11T08:01:03.029Z,60.30
2023-04-11T08:02:03.338Z,45.81
2023-04-11T08:03:03.732Z,24.49
2023-04-11T08:04:03.685Z,36.40
2023-04-11T08:05:03.269Z,33.30
2023-04-11T08:06:03.301Z,42.48
2023-04-11T08:07:03.381Z,43.81
2023-04-11T08:08:03.011Z,54.20
2023-04-11T08:09:03.003Z,58.05
2023-04-11T08:10:03.022Z,59.38
2023-04-11T08:11:03.083Z,65.12
2023-04-11T08:12:03.555Z,64.91
2023-04-11T08:13:03.149Z,59.23
2023-04-11T08:14:03.171Z,61.18
2023-04-11T08:15:03.140Z,59.73
2023-04-11T08:16:03.512Z,52.12
2023-04-11T08:17:03.320Z,74.90
2023-04-11T08:18:03.295Z,102.50
2023-04-11T08:19:03.559Z,123.48
2023-04-11T08:20:03.274Z,135.98
2023-04-11T08:21:03.314Z,143.59
2023-04-11T08:22:03.350Z,147.04
2023-04-11T08:23:05.763Z,152.31
2023-04-11T08:24:03.532Z,156.59
2023-04-11T08:25:03.336Z,160.12
2023-04-11T08:26:03.542Z,163.75
2023-04-11T08:27:03.356Z,168.23
2023-04-11T08:28:03.301Z,169.27
2023-04-11T08:29:03.311Z,172.43
2023-04-11T08:30:03.283Z,176.93
2023-04-11T08:31:03.632Z,179.75
2023-04-11T08:32:03.517Z,182.76
2023-04-11T08:33:03.405Z,184.84
2023-04-11T08:34:06.184Z,186.20
2023-04-11T08:35:03.263Z,186.55
2023-04-11T08:36:03.279Z,187.18
2023-04-11T08:37:03.235Z,188.96
2023-04-11T08:38:03.237Z,192.66
2023-04-11T08:39:03.517Z,197.60
2023-04-11T08:40:03.214Z,200.06
2023-04-11T08:41:03.206Z,203.32
2023-04-11T08:42:03.202Z,204.26
2023-04-11T08:43:03.224Z,208.56
2023-04-11T08:44:03.558Z,209.62
2023-04-11T08:45:03.613Z,213.53
2023-04-11T08:46:03.264Z,214.70
2023-04-11T08:47:03.197Z,219.04
2023-04-11T08:48:03.175Z,220.88
2023-04-11T08:49:03.156Z,222.15
2023-04-11T08:50:03.655Z,224.31
2023-04-11T08:51:03.130Z,226.33
2023-04-11T08:52:03.129Z,228.14
2023-04-11T08:53:03.120Z,231.90
2023-04-11T08:54:03.542Z,233.22
2023-04-11T08:55:03.105Z,236.20
2023-04-11T08:56:03.090Z,238.96
2023-04-11T08:57:03.100Z,241.76
2023-04-11T08:58:03.089Z,241.52
2023-04-11T08:59:03.553Z,245.27
2023-04-11T09:00:03.163Z,247.82
2023-04-11T09:01:03.212Z,248.70
2023-04-11T09:02:03.323Z,249.12
2023-04-11T09:03:03.846Z,249.39
2023-04-11T09:04:03.536Z,249.79
2023-04-11T09:05:03.509Z,249.32
2023-04-11T09:06:03.533Z,247.56
2023-04-11T09:07:03.608Z,245.01
2023-04-11T09:08:03.591Z,248.89
2023-04-11T09:09:03.669Z,188.40
2023-04-11T09:10:03.663Z,145.90
2023-04-11T09:11:04.027Z,129.05
2023-04-11T09:12:04.018Z,108.08
2023-04-11T09:13:04.010Z,103.96
2023-04-11T09:14:04.086Z,93.23
2023-04-11T09:15:04.552Z,98.22
2023-04-11T09:16:04.584Z,92.39
2023-04-11T09:17:03.953Z,101.65
2023-04-11T09:18:03.898Z,118.08
2023-04-11T09:19:03.894Z,144.93
2023-04-11T09:20:04.049Z,156.82
2023-04-11T09:21:03.938Z,165.11
2023-04-11T09:22:03.952Z,170.01
2023-04-11T09:23:03.996Z,174.78
2023-04-11T09:24:04.533Z,177.16
2023-04-11T09:25:04.058Z,182.14
2023-04-11T09:26:04.079Z,183.05
2023-04-11T09:27:04.058Z,188.41
2023-04-11T09:28:04.088Z,190.88
2023-04-11T09:29:04.547Z,191.42
2023-04-11T09:30:04.536Z,192.61
2023-04-11T09:31:04.305Z,195.67
2023-04-11T09:32:04.539Z,198.56
2023-04-11T09:33:04.392Z,203.16
2023-04-11T09:34:04.548Z,204.36
2023-04-11T09:35:04.320Z,206.54
2023-04-11T09:36:04.384Z,211.05
2023-04-11T09:37:04.365Z,211.78
2023-04-11T09:38:04.355Z,214.32
2023-04-11T09:39:04.546Z,217.48
2023-04-11T09:40:05.731Z,219.64
2023-04-11T09:41:05.068Z,219.23
2023-04-11T09:42:05.048Z,222.31
2023-04-11T09:43:04.611Z,224.16
2023-04-11T09:44:04.618Z,225.59
2023-04-11T09:45:04.666Z,231.57
2023-04-11T09:46:05.350Z,230.59
2023-04-11T09:47:04.899Z,235.28
2023-04-11T09:48:04.751Z,237.67
2023-04-11T09:49:05.101Z,239.52
2023-04-11T09:50:04.846Z,241.23
2023-04-11T09:51:05.058Z,243.67
2023-04-11T09:52:05.062Z,243.47
2023-04-11T09:53:05.042Z,244.50
2023-04-11T09:54:07.144Z,248.17
2023-04-11T09:55:05.401Z,249.18
2023-04-11T09:56:05.104Z,244.31
2023-04-11T09:57:05.546Z,248.03
2023-04-11T09:58:05.571Z,248.50
2023-04-11T09:59:05.130Z,244.78
2023-04-11T10:00:05.047Z,249.67
2023-04-11T10:01:05.053Z,247.12
2023-04-11T10:02:05.204Z,248.87
2023-04-11T10:03:05.228Z,246.79
2023-04-11T10:04:05.043Z,244.85
2023-04-11T10:05:05.629Z,247.45
2023-04-11T10:06:05.213Z,248.31
2023-04-11T10:07:05.324Z,207.21
2023-04-11T10:08:05.365Z,162.82
2023-04-11T10:09:05.553Z,109.85
2023-04-11T10:10:05.429Z,91.25
2023-04-11T10:11:05.364Z,77.76
2023-04-11T10:12:05.403Z,74.20
2023-04-11T10:13:04.964Z,78.69
2023-04-11T10:14:04.945Z,81.08
2023-04-11T10:15:04.943Z,59.82
2023-04-11T10:16:04.957Z,55.25
2023-04-11T10:17:04.930Z,58.75
2023-04-11T10:18:04.984Z,67.74
2023-04-11T10:19:04.953Z,48.66
2023-04-11T10:20:04.909Z,48.94
2023-04-11T10:21:04.904Z,50.39
2023-04-11T10:22:05.066Z,51.80
2023-04-11T10:23:05.595Z,48.61
2023-04-11T10:24:04.876Z,50.60
2023-04-11T10:25:04.861Z,43.56
2023-04-11T10:26:05.282Z,50.61
2023-04-11T10:27:05.062Z,119.53
2023-04-11T10:28:04.885Z,137.06
2023-04-11T10:29:05.073Z,144.59
2023-04-11T10:30:04.837Z,151.37
2023-04-11T10:31:05.230Z,150.29
2023-04-11T10:32:04.896Z,151.55
2023-04-11T10:33:05.092Z,152.17
2023-04-11T10:34:04.901Z,155.03
2023-04-11T10:35:04.942Z,155.57
2023-04-11T10:36:04.984Z,155.66
2023-04-11T10:37:04.959Z,157.69
2023-04-11T10:38:05.063Z,158.64
2023-04-11T10:39:05.063Z,159.19
2023-04-11T10:40:04.953Z,160.25
2023-04-11T10:41:04.953Z,160.74
2023-04-11T10:42:05.569Z,163.15
2023-04-11T10:43:05.056Z,162.44
2023-04-11T10:44:05.562Z,162.68
2023-04-11T10:45:05.170Z,164.68
2023-04-11T10:46:05.213Z,167.11
2023-04-11T10:47:05.292Z,168.55
2023-04-11T10:48:05.327Z,168.66
2023-04-11T10:49:05.569Z,169.54
2023-04-11T10:50:05.354Z,169.14
2023-04-11T10:51:05.407Z,170.79
2023-04-11T10:52:05.411Z,171.46
2023-04-11T10:53:05.587Z,171.63
2023-04-11T10:54:05.708Z,170.62
2023-04-11T10:55:05.480Z,171.45
2023-04-11T10:56:05.516Z,172.65
2023-04-11T10:57:05.508Z,174.06
2023-04-11T10:58:05.572Z,173.19
2023-04-11T10:59:05.578Z,175.21
2023-04-11T11:01:04.620Z,173.33
2023-04-11T11:02:05.643Z,174.45
2023-04-11T11:03:05.682Z,174.72
2023-04-11T11:04:06.911Z,174.98
2023-04-11T11:05:05.845Z,174.82
2023-04-11T11:06:06.071Z,173.77
2023-04-11T11:07:05.822Z,174.27
2023-04-11T11:08:05.914Z,174.62
2023-04-11T11:09:06.210Z,174.71
2023-04-11T11:10:05.933Z,173.41
2023-04-11T11:11:05.955Z,174.54
2023-04-11T11:12:05.873Z,173.36
2023-04-11T11:13:06.203Z,175.43
2023-04-11T11:14:05.846Z,174.03
2023-04-11T11:15:05.850Z,174.71
2023-04-11T11:16:05.870Z,173.69
2023-04-11T11:17:06.607Z,173.73
2023-04-11T11:18:06.630Z,173.55
2023-04-11T11:19:05.854Z,172.56
2023-04-11T11:20:05.852Z,174.08
2023-04-11T11:21:07.482Z,173.92
2023-04-11T11:22:13.256Z,174.11
2023-04-11T11:23:06.070Z,174.28
2023-04-11T11:24:05.828Z,175.03
2023-04-11T11:25:05.828Z,175.44
2023-04-11T11:26:05.819Z,174.63
2023-04-11T11:27:05.803Z,176.27
2023-04-11T11:28:05.802Z,173.37
2023-04-11T11:29:06.101Z,175.90
2023-04-11T11:30:05.794Z,173.99
2023-04-11T11:31:05.776Z,169.67
2023-04-11T11:32:05.793Z,171.86
2023-04-11T11:33:05.782Z,172.38
2023-04-11T11:34:21.954Z,171.58
2023-04-11T11:35:05.756Z,171.86
2023-04-11T11:36:05.773Z,172.12
2023-04-11T11:37:05.752Z,172.50
2023-04-11T11:38:06.105Z,173.00
2023-04-11T11:39:05.726Z,173.62
2023-04-11T11:40:05.711Z,169.96
2023-04-11T11:41:05.708Z,171.57
2023-04-11T11:42:05.704Z,169.80
2023-04-11T11:43:06.087Z,170.31
2023-04-11T11:44:05.691Z,169.14
2023-04-11T11:45:05.686Z,169.05
2023-04-11T11:46:07.183Z,168.01
2023-04-11T11:47:05.917Z,168.11
2023-04-11T11:48:06.181Z,166.71
2023-04-11T11:49:05.910Z,168.86
2023-04-11T11:50:05.920Z,166.75
2023-04-11T11:51:05.952Z,165.99
2023-04-11T11:52:05.903Z,166.48
2023-04-11T11:53:05.911Z,163.17
2023-04-11T11:54:05.956Z,164.25
2023-04-11T11:55:07.009Z,164.47
2023-04-11T11:56:05.950Z,164.55
2023-04-11T11:57:05.947Z,164.59
2023-04-11T11:58:06.086Z,160.58
2023-04-11T11:59:05.917Z,162.65
2023-04-11T12:00:05.934Z,162.57
2023-04-11T12:01:05.909Z,160.36
2023-04-11T12:02:05.996Z,159.19
2023-04-11T12:03:06.268Z,160.41
2023-04-11T12:04:06.038Z,160.89
2023-04-11T12:05:06.046Z,160.58
2023-04-11T12:06:05.872Z,163.99
2023-04-11T12:07:05.864Z,173.99
2023-04-11T12:08:06.103Z,184.38
2023-04-11T12:09:05.855Z,187.75
2023-04-11T12:10:06.216Z,190.74
2023-04-11T12:11:06.586Z,190.02
2023-04-11T12:12:05.837Z,188.74
2023-04-11T12:13:07.086Z,189.13
2023-04-11T12:14:06.001Z,189.79
2023-04-11T12:15:05.803Z,187.76
2023-04-11T12:16:06.149Z,185.27
2023-04-11T12:17:05.976Z,182.87
2023-04-11T12:18:05.864Z,182.38
2023-04-11T12:19:06.236Z,183.15
2023-04-11T12:20:05.791Z,179.87
2023-04-11T12:21:05.771Z,177.52
2023-04-11T12:22:05.763Z,177.03
2023-04-11T12:23:06.120Z,175.87
2023-04-11T12:24:05.751Z,176.09
2023-04-11T12:25:05.788Z,174.91
2023-04-11T12:26:05.785Z,172.14
2023-04-11T12:27:07.289Z,173.39
2023-04-11T12:28:05.746Z,174.84
2023-04-11T12:29:06.101Z,174.64
2023-04-11T12:30:05.714Z,173.20
2023-04-11T12:31:05.709Z,171.65
2023-04-11T12:32:08.909Z,170.13
2023-04-11T12:33:06.175Z,170.16
2023-04-11T12:34:05.676Z,169.83
2023-04-11T12:35:06.124Z,167.13
2023-04-11T12:36:05.659Z,165.78
2023-04-11T12:37:05.669Z,164.33
2023-04-11T12:38:05.646Z,165.84
2023-04-11T12:39:06.703Z,164.03
2023-04-11T12:40:06.165Z,160.80
2023-04-11T12:41:30.262Z,162.63
2023-04-11T12:42:05.650Z,162.82
2023-04-11T12:43:06.141Z,163.06
2023-04-11T12:44:05.609Z,162.84